createdAt,value
2018-03-06T00:02:21.792Z,11.07
2018-03-06T00:04:52.051Z,13.10
2018-03-06T00:07:23.204Z,16.77
2018-03-06T00:09:53.714Z,12.57
2018-03-06T00:12:24.792Z,12.53
2018-03-06T00:14:55.579Z,13.97
2018-03-06T00:17:25.810Z,12.53
2018-03-06T00:19:55.911Z,15.70
2018-03-06T00:22:25.916Z,12.97
2018-03-06T00:24:56.238Z,13.20
2018-03-06T00:27:26.870Z,14.80
2018-03-06T00:29:56.895Z,11.17
2018-03-06T00:32:26.952Z,12.60
2018-03-06T00:34:58.489Z,17.10
2018-03-06T00:37:28.775Z,13.93
2018-03-06T00:39:59.101Z,11.83
2018-03-06T00:42:29.219Z,14.53
2018-03-06T00:45:00.829Z,13.60
2018-03-06T00:47:31.605Z,14.50
2018-03-06T00:50:01.608Z,13.87
2018-03-06T00:52:31.996Z,14.20
2018-03-06T00:55:02.268Z,12.80
2018-03-06T00:57:32.492Z,15.47
2018-03-06T01:00:03.376Z,15.17
2018-03-06T01:02:33.962Z,17.67
2018-03-06T01:05:04.326Z,11.60
2018-03-06T01:07:35.547Z,13.53
2018-03-06T01:10:05.835Z,12.47
2018-03-06T01:12:36.619Z,12.20
2018-03-06T01:15:07.532Z,16.93
2018-03-06T01:17:38.311Z,14.80
2018-03-06T01:20:08.344Z,16.37
2018-03-06T01:22:38.573Z,11.20
2018-03-06T01:25:08.583Z,18.73
2018-03-06T01:27:39.859Z,15.23
2018-03-06T01:30:10.800Z,14.60
2018-03-06T01:32:40.916Z,16.90
2018-03-06T01:35:11.284Z,17.10
2018-03-06T01:37:41.568Z,14.90
2018-03-06T01:40:12.464Z,16.00
2018-03-06T01:42:42.828Z,13.53
2018-03-06T01:45:13.289Z,14.27
2018-03-06T01:47:44.289Z,15.00
2018-03-06T01:50:14.508Z,16.03
2018-03-06T01:52:44.678Z,15.10
2018-03-06T01:55:15.012Z,11.97
2018-03-06T01:57:45.755Z,17.80
2018-03-06T02:00:16.212Z,14.60
2018-03-06T02:02:46.772Z,18.57
2018-03-06T02:05:17.210Z,12.67
2018-03-06T02:07:48.931Z,12.30
2018-03-06T02:10:19.160Z,10.30
2018-03-06T02:12:49.528Z,15.07
2018-03-06T02:15:22.440Z,12.60
2018-03-06T02:17:59.554Z,17.07
2018-03-06T02:20:31.663Z,13.13
2018-03-06T02:23:04.563Z,14.83
2018-03-06T02:25:37.271Z,15.83
2018-03-06T02:28:07.598Z,15.50
2018-03-06T02:30:38.660Z,17.30
2018-03-06T02:33:09.135Z,13.57
2018-03-06T02:35:40.343Z,11.17
2018-03-06T02:38:12.171Z,12.37
2018-03-06T02:40:42.940Z,13.00
2018-03-06T02:43:13.624Z,12.67
2018-03-06T02:45:44.017Z,12.57
2018-03-06T02:48:14.582Z,16.37
2018-03-06T02:50:45.167Z,11.73
2018-03-06T02:53:16.048Z,13.20
2018-03-06T02:55:46.682Z,14.40
2018-03-06T02:58:18.118Z,14.13
2018-03-06T03:00:48.810Z,17.80
2018-03-06T03:03:19.595Z,13.63
2018-03-06T03:05:49.718Z,18.03
2018-03-06T03:08:20.162Z,16.23
2018-03-06T03:10:50.748Z,14.07
2018-03-06T03:13:21.040Z,15.33
2018-03-06T03:15:51.659Z,15.00
2018-03-06T03:18:21.946Z,15.30
2018-03-06T03:20:52.453Z,18.27
2018-03-06T03:23:22.798Z,14.30
2018-03-06T03:25:53.896Z,18.30
2018-03-06T03:28:24.598Z,18.60
2018-03-06T03:30:55.597Z,19.90
2018-03-06T03:33:25.574Z,14.23
2018-03-06T03:35:55.795Z,13.17
2018-03-06T03:38:26.327Z,12.33
2018-03-06T03:40:56.651Z,17.40
2018-03-06T03:43:27.268Z,13.93
2018-03-06T03:45:57.494Z,15.90
2018-03-06T03:48:28.085Z,15.77
2018-03-06T03:50:58.562Z,14.30
2018-03-06T03:53:29.101Z,15.50
2018-03-06T03:55:59.280Z,18.30
2018-03-06T03:58:29.730Z,17.33
2018-03-06T04:01:00.640Z,15.60
2018-03-06T04:03:31.457Z,14.90
2018-03-06T04:06:01.769Z,18.87
2018-03-06T04:08:32.118Z,15.13
2018-03-06T04:11:02.366Z,17.53
2018-03-06T04:13:32.750Z,19.37
2018-03-06T04:16:03.213Z,20.80
2018-03-06T04:18:33.603Z,24.07
2018-03-06T04:21:03.901Z,17.13
2018-03-06T04:23:34.198Z,26.83
2018-03-06T04:26:04.195Z,12.93
2018-03-06T04:28:34.514Z,19.63
2018-03-06T04:31:04.583Z,17.93
2018-03-06T04:33:35.395Z,23.53
2018-03-06T04:36:05.460Z,24.27
2018-03-06T04:38:35.878Z,17.73
2018-03-06T04:41:06.311Z,19.17
2018-03-06T04:43:36.798Z,24.87
2018-03-06T04:46:08.125Z,19.13
2018-03-06T04:48:39.967Z,18.97
2018-03-06T04:51:10.064Z,22.77
2018-03-06T04:53:41.395Z,16.27
2018-03-06T04:56:12.024Z,20.07
2018-03-06T04:58:43.192Z,27.13
2018-03-06T05:01:14.836Z,16.30
2018-03-06T05:03:45.163Z,17.07
2018-03-06T05:06:16.307Z,21.17
2018-03-06T05:08:46.805Z,20.57
2018-03-06T05:11:17.387Z,18.90
2018-03-06T05:13:47.766Z,18.50
2018-03-06T05:16:17.770Z,17.87
2018-03-06T05:18:48.290Z,21.50
2018-03-06T05:21:18.656Z,21.03
2018-03-06T05:23:48.642Z,25.23
2018-03-06T05:26:18.936Z,22.47
2018-03-06T05:28:49.229Z,20.53
2018-03-06T05:31:20.412Z,22.07
2018-03-06T05:33:50.627Z,19.10
2018-03-06T05:36:21.424Z,18.20
2018-03-06T05:38:51.451Z,22.50
2018-03-06T05:41:22.003Z,24.30
2018-03-06T05:43:51.947Z,25.00
2018-03-06T05:46:22.013Z,25.67
2018-03-06T05:48:52.087Z,25.33
2018-03-06T05:51:22.130Z,23.03
2018-03-06T05:53:52.280Z,36.53
2018-03-06T05:56:22.717Z,23.60
2018-03-06T05:58:52.827Z,24.10
2018-03-06T06:01:22.887Z,21.13
2018-03-06T06:03:52.928Z,22.27
2018-03-06T06:06:23.033Z,20.60
2018-03-06T06:08:53.144Z,25.97
2018-03-06T06:11:23.506Z,21.57
2018-03-06T06:13:54.447Z,22.70
2018-03-06T06:16:24.539Z,23.30
2018-03-06T06:18:54.843Z,26.97
2018-03-06T06:21:25.048Z,21.57
2018-03-06T06:23:55.109Z,22.37
2018-03-06T06:26:25.760Z,27.13
2018-03-06T06:28:56.077Z,23.77
2018-03-06T06:31:26.643Z,23.80
2018-03-06T06:33:56.678Z,22.43
2018-03-06T06:36:26.795Z,20.90
2018-03-06T06:38:57.626Z,27.27
2018-03-06T06:41:28.127Z,31.50
2018-03-06T06:43:58.414Z,20.10
2018-03-06T06:46:28.438Z,27.40
2018-03-06T06:48:58.538Z,23.93
2018-03-06T06:51:28.727Z,26.20
2018-03-06T06:53:58.788Z,23.43
2018-03-06T06:56:29.115Z,20.60
2018-03-06T06:58:59.171Z,26.37
2018-03-06T07:01:29.201Z,30.83
2018-03-06T07:04:00.047Z,28.40
2018-03-06T07:06:30.078Z,25.20
2018-03-06T07:09:00.878Z,18.70
2018-03-06T07:11:32.007Z,22.83
2018-03-06T07:14:01.985Z,18.87
2018-03-06T07:16:32.110Z,24.20
2018-03-06T07:19:03.359Z,23.67
2018-03-06T07:21:33.443Z,22.90
2018-03-06T07:24:03.595Z,22.60
2018-03-06T07:26:34.058Z,23.87
2018-03-06T07:29:04.195Z,20.60
2018-03-06T07:31:34.268Z,26.10
2018-03-06T07:34:04.391Z,26.63
2018-03-06T07:36:34.530Z,25.50
2018-03-06T07:39:05.002Z,26.77
2018-03-06T07:41:36.141Z,28.00
2018-03-06T07:44:07.670Z,23.03
2018-03-06T07:46:37.878Z,24.10
2018-03-06T07:49:07.896Z,26.10
2018-03-06T07:51:38.018Z,27.87
2018-03-06T07:54:08.041Z,24.67
2018-03-06T07:56:38.179Z,21.77
2018-03-06T07:59:09.271Z,25.70
2018-03-06T08:01:39.542Z,29.00
2018-03-06T08:04:10.475Z,29.67
2018-03-06T08:06:40.850Z,29.30
2018-03-06T08:09:18.300Z,25.57
2018-03-06T08:11:48.387Z,27.93
2018-03-06T08:14:18.824Z,26.37
2018-03-06T08:16:48.886Z,31.87
2018-03-06T08:19:18.945Z,33.10
2018-03-06T08:21:49.358Z,32.67
2018-03-06T08:24:19.405Z,32.20
2018-03-06T08:26:49.463Z,34.10
2018-03-06T08:29:19.519Z,33.30
2018-03-06T08:31:50.042Z,37.97
2018-03-06T08:34:20.133Z,33.70
2018-03-06T08:36:50.410Z,30.67
2018-03-06T08:39:21.254Z,34.23
2018-03-06T08:41:52.204Z,35.97
2018-03-06T08:44:23.276Z,38.10
2018-03-06T08:46:53.863Z,36.70
2018-03-06T08:49:23.999Z,32.03
2018-03-06T08:51:54.914Z,33.60
2018-03-06T08:54:24.930Z,40.87
2018-03-06T08:56:55.879Z,34.33
2018-03-06T08:59:26.778Z,36.20
2018-03-06T09:01:56.778Z,32.37
2018-03-06T09:04:27.374Z,34.30
2018-03-06T09:06:58.328Z,31.20
2018-03-06T09:09:28.523Z,43.40
2018-03-06T09:11:58.546Z,35.57
2018-03-06T09:14:29.677Z,35.00
2018-03-06T09:16:59.872Z,42.83
2018-03-06T09:19:29.906Z,38.67
2018-03-06T09:21:59.931Z,39.23
2018-03-06T09:24:29.944Z,38.00
2018-03-06T09:27:00.010Z,37.73
2018-03-06T09:29:30.383Z,39.53
2018-03-06T09:32:00.462Z,40.43
2018-03-06T09:34:30.539Z,40.00
2018-03-06T09:37:00.903Z,41.43
2018-03-06T09:39:31.044Z,37.30
2018-03-06T09:42:01.199Z,47.90
2018-03-06T09:44:32.044Z,38.17
2018-03-06T09:47:03.279Z,38.87
2018-03-06T09:49:34.115Z,52.10
2018-03-06T09:52:04.995Z,41.33
2018-03-06T09:54:36.451Z,48.73
2018-03-06T09:57:06.540Z,45.10
2018-03-06T09:59:37.483Z,44.47
2018-03-06T10:02:07.690Z,36.83
2018-03-06T10:04:38.616Z,38.83
2018-03-06T10:07:08.700Z,41.07
2018-03-06T10:09:38.946Z,48.17
2018-03-06T10:12:09.089Z,38.17
2018-03-06T10:14:40.344Z,36.47
2018-03-06T10:17:10.527Z,38.60
2018-03-06T10:19:40.737Z,37.07
2018-03-06T10:22:11.276Z,39.70
2018-03-06T10:24:41.594Z,42.10
2018-03-06T10:27:11.611Z,39.87
2018-03-06T10:29:41.847Z,41.00
2018-03-06T10:32:12.316Z,39.90
2018-03-06T10:34:42.448Z,42.87
2018-03-06T10:37:12.514Z,37.93
2018-03-06T10:39:43.782Z,37.13
2018-03-06T10:42:14.503Z,37.00
2018-03-06T10:44:45.660Z,38.50
2018-03-06T10:47:16.055Z,38.70
2018-03-06T10:49:46.127Z,38.97
2018-03-06T10:52:16.408Z,42.50
2018-03-06T10:54:47.380Z,41.37
2018-03-06T10:57:19.111Z,42.63
2018-03-06T10:59:50.407Z,42.83
2018-03-06T11:02:24.726Z,36.57
2018-03-06T11:04:54.951Z,44.90
2018-03-06T11:07:25.062Z,41.40
2018-03-06T11:09:55.131Z,40.43
2018-03-06T11:12:26.215Z,36.80
2018-03-06T11:14:56.768Z,39.50
2018-03-06T11:17:27.498Z,39.07
2018-03-06T11:19:57.870Z,47.70
2018-03-06T11:22:29.249Z,40.43
2018-03-06T11:24:59.480Z,38.43
2018-03-06T11:27:29.600Z,38.80
2018-03-06T11:30:00.111Z,39.23
2018-03-06T11:32:30.308Z,45.43
2018-03-06T11:35:01.320Z,41.03
2018-03-06T11:37:32.451Z,38.53
2018-03-06T11:40:03.667Z,43.60
2018-03-06T11:42:34.018Z,36.73
2018-03-06T11:45:04.298Z,40.33
2018-03-06T11:47:34.438Z,35.30
2018-03-06T11:50:04.612Z,34.23
2018-03-06T11:52:35.566Z,38.40
2018-03-06T11:55:06.575Z,38.00
2018-03-06T11:57:36.700Z,33.20
2018-03-06T12:00:07.837Z,33.97
2018-03-06T12:02:38.046Z,39.20
2018-03-06T12:05:08.226Z,33.73
2018-03-06T12:07:38.305Z,36.57
2018-03-06T12:10:08.483Z,41.33
2018-03-06T12:12:38.616Z,39.87
2018-03-06T12:15:09.027Z,38.50
2018-03-06T12:17:39.155Z,36.20
2018-03-06T12:20:09.346Z,36.60
2018-03-06T12:22:39.632Z,37.20
2018-03-06T12:25:09.671Z,36.57
2018-03-06T12:27:40.609Z,39.43
2018-03-06T12:30:12.848Z,36.57
2018-03-06T12:32:42.999Z,38.53
2018-03-06T12:35:13.884Z,33.70
2018-03-06T12:37:43.930Z,34.53
2018-03-06T12:40:13.971Z,40.00
2018-03-06T12:42:44.763Z,36.50
2018-03-06T12:45:15.111Z,39.60
2018-03-06T12:47:46.015Z,41.20
2018-03-06T12:50:16.060Z,36.43
2018-03-06T12:52:46.443Z,36.40
2018-03-06T12:55:16.574Z,37.37
2018-03-06T12:57:46.917Z,41.23
2018-03-06T13:00:19.529Z,39.93
2018-03-06T13:02:50.700Z,41.90
2018-03-06T13:05:20.800Z,37.70
2018-03-06T13:07:52.281Z,34.43
2018-03-06T13:10:24.622Z,46.10
2018-03-06T13:12:55.339Z,39.50
2018-03-06T13:15:25.561Z,36.83
2018-03-06T13:17:56.701Z,39.43
2018-03-06T13:20:29.875Z,38.43
2018-03-06T13:23:00.207Z,44.70
2018-03-06T13:25:30.442Z,35.97
2018-03-06T13:28:01.899Z,37.60
2018-03-06T13:30:32.093Z,35.33
2018-03-06T13:33:02.272Z,37.47
2018-03-06T13:35:32.389Z,36.23
2018-03-06T13:38:02.780Z,39.90
2018-03-06T13:40:33.799Z,41.77
2018-03-06T13:43:16.464Z,32.23
2018-03-06T13:45:46.759Z,36.13
2018-03-06T13:48:19.054Z,41.27
2018-03-06T13:50:49.925Z,34.43
2018-03-06T13:53:20.177Z,38.00
2018-03-06T13:55:51.964Z,38.23
2018-03-06T13:58:23.014Z,35.07
2018-03-06T14:00:54.055Z,40.50
2018-03-06T14:03:24.295Z,41.30
2018-03-06T14:05:54.910Z,34.80
2018-03-06T14:08:25.062Z,31.67
2018-03-06T14:10:55.312Z,40.50
2018-03-06T14:13:26.269Z,35.20
2018-03-06T14:15:59.369Z,40.63
2018-03-06T14:18:29.590Z,35.23
2018-03-06T14:20:59.893Z,36.97
2018-03-06T14:23:30.177Z,39.17
2018-03-06T14:26:00.498Z,37.00
2018-03-06T14:28:30.641Z,32.50
2018-03-06T14:31:01.375Z,39.47
2018-03-06T14:33:31.517Z,33.33
2018-03-06T14:36:02.541Z,36.63
2018-03-06T14:38:32.800Z,38.13
2018-03-06T14:41:03.023Z,35.40
2018-03-06T14:43:33.246Z,37.37
2018-03-06T14:46:03.750Z,37.10
2018-03-06T14:48:34.699Z,40.33
2018-03-06T14:51:05.771Z,34.93
2018-03-06T14:53:39.105Z,34.17
2018-03-06T14:56:14.147Z,38.17
2018-03-06T14:58:44.669Z,38.33
2018-03-06T15:01:15.081Z,34.00
2018-03-06T15:03:46.077Z,34.37
2018-03-06T15:06:16.361Z,31.73
2018-03-06T15:08:46.503Z,28.60
2018-03-06T15:11:17.529Z,32.93
2018-03-06T15:13:47.733Z,29.30
2018-03-06T15:16:18.468Z,31.17
2018-03-06T15:18:48.651Z,32.07
2018-03-06T15:21:18.824Z,29.07
2018-03-06T15:23:49.019Z,29.33
2018-03-06T15:26:19.154Z,27.10
2018-03-06T15:28:49.428Z,31.67
2018-03-06T15:31:19.934Z,31.40
2018-03-06T15:33:50.284Z,24.60
2018-03-06T15:36:20.541Z,22.23
2018-03-06T15:38:50.852Z,27.07
2018-03-06T15:41:21.016Z,31.23
2018-03-06T15:43:51.973Z,27.33
2018-03-06T15:46:22.983Z,27.17
2018-03-06T15:48:54.721Z,33.57
2018-03-06T15:51:24.849Z,23.23
2018-03-06T15:53:55.612Z,31.60
2018-03-06T15:56:26.617Z,31.50
2018-03-06T15:58:56.937Z,29.20
2018-03-06T16:01:27.065Z,31.87
2018-03-06T16:03:57.744Z,41.87
2018-03-06T16:06:27.890Z,39.07
2018-03-06T16:08:58.063Z,40.87
2018-03-06T16:11:28.947Z,42.07
2018-03-06T16:13:59.558Z,43.67
2018-03-06T16:16:29.725Z,46.33
2018-03-06T16:18:59.957Z,45.83
2018-03-06T16:21:30.106Z,48.97
2018-03-06T16:24:01.023Z,42.80
2018-03-06T16:26:31.554Z,51.17
2018-03-06T16:29:01.704Z,47.93
2018-03-06T16:31:31.914Z,43.90
2018-03-06T16:34:02.070Z,43.97
2018-03-06T16:36:32.211Z,42.30
2018-03-06T16:39:02.866Z,48.10
2018-03-06T16:41:33.061Z,46.93
2018-03-06T16:44:03.258Z,56.30
2018-03-06T16:46:33.498Z,53.87
2018-03-06T16:49:03.802Z,57.73
2018-03-06T16:51:34.042Z,60.07
2018-03-06T16:54:04.259Z,52.70
2018-03-06T16:56:34.373Z,63.27
2018-03-06T16:59:04.532Z,56.17
2018-03-06T17:01:35.174Z,59.00
2018-03-06T17:04:06.109Z,65.80
2018-03-06T17:06:36.324Z,56.17
2018-03-06T17:09:06.776Z,72.97
2018-03-06T17:11:36.924Z,63.30
2018-03-06T17:14:07.221Z,68.60
2018-03-06T17:16:37.736Z,74.43
2018-03-06T17:19:08.652Z,64.20
2018-03-06T17:21:39.303Z,70.90
2018-03-06T17:24:10.403Z,78.90
2018-03-06T17:26:40.675Z,75.63
2018-03-06T17:29:11.677Z,68.97
2018-03-06T17:31:48.808Z,77.83
2018-03-06T17:34:18.926Z,82.57
2018-03-06T17:36:49.065Z,83.53
2018-03-06T17:39:19.177Z,81.00
2018-03-06T17:41:49.514Z,76.70
2018-03-06T17:44:20.065Z,82.63
2018-03-06T17:53:35.502Z,89.10
2018-03-06T17:56:05.715Z,75.90
2018-03-06T17:58:35.980Z,79.93
2018-03-06T18:01:07.557Z,75.03
2018-03-06T18:03:37.766Z,76.53
2018-03-06T18:06:08.013Z,76.73
2018-03-06T18:08:39.028Z,84.57
2018-03-06T18:11:09.477Z,84.17
2018-03-06T18:13:39.792Z,82.97
2018-03-06T18:16:09.978Z,86.50
2018-03-06T18:18:40.894Z,78.30
2018-03-06T18:21:11.656Z,71.57
2018-03-06T18:23:41.929Z,76.97
2018-03-06T18:26:12.103Z,76.37
2018-03-06T18:28:42.289Z,73.20
2018-03-06T18:31:12.482Z,76.47
2018-03-06T18:33:43.305Z,57.40
2018-03-06T18:36:13.493Z,72.30
2018-03-06T18:38:44.449Z,74.07
2018-03-06T18:41:14.911Z,72.00
2018-03-06T18:43:45.093Z,70.10
2018-03-06T18:46:17.196Z,74.97
2018-03-06T18:48:48.899Z,83.40
2018-03-06T18:51:19.871Z,80.17
2018-03-06T18:53:50.042Z,67.63
2018-03-06T18:56:20.565Z,72.07
2018-03-06T18:58:52.359Z,75.97
2018-03-06T19:03:37.213Z,77.00
2018-03-06T19:06:16.086Z,74.47
2018-03-06T19:08:47.113Z,68.77
2018-03-06T19:11:17.489Z,71.90
2018-03-06T19:13:47.810Z,72.57
2018-03-06T19:16:18.131Z,63.97
2018-03-06T19:18:48.693Z,66.40
2018-03-06T19:21:19.621Z,65.30
2018-03-06T19:23:50.506Z,67.43
2018-03-06T19:26:20.736Z,72.13
2018-03-06T19:28:50.914Z,74.97
2018-03-06T19:31:21.997Z,73.90
2018-03-06T19:33:52.464Z,75.57
2018-03-06T19:36:22.785Z,88.27
2018-03-06T19:38:57.581Z,98.27
2018-03-06T19:41:28.797Z,83.80
2018-03-06T19:43:58.920Z,79.20
2018-03-06T19:46:29.050Z,84.77
2018-03-06T19:48:59.580Z,94.60
2018-03-06T19:51:34.364Z,71.43
2018-03-06T19:54:04.741Z,80.17
2018-03-06T19:56:35.624Z,78.27
2018-03-06T19:59:05.857Z,72.97
2018-03-06T20:01:36.858Z,74.63
2018-03-06T20:04:07.008Z,76.60
2018-03-06T20:06:37.431Z,71.93
2018-03-06T20:09:07.559Z,73.50
2018-03-06T20:11:38.162Z,90.40
2018-03-06T20:14:12.814Z,86.33
2018-03-06T20:16:43.586Z,85.47
2018-03-06T20:19:18.270Z,75.47
2018-03-06T20:21:48.527Z,83.27
2018-03-06T20:26:51.800Z,79.27
2018-03-06T20:29:22.747Z,85.13
2018-03-06T20:34:02.633Z,80.47
2018-03-06T20:36:33.149Z,86.07
2018-03-06T20:39:08.809Z,87.40
2018-03-06T20:41:39.187Z,85.07
2018-03-06T20:44:09.627Z,81.97
2018-03-06T20:47:43.226Z,83.40
2018-03-06T20:50:13.855Z,88.17
2018-03-06T20:52:49.170Z,78.83
2018-03-06T20:55:19.423Z,78.03
2018-03-06T20:57:50.358Z,87.57
2018-03-06T21:00:20.566Z,88.57
2018-03-06T21:02:51.174Z,88.23
2018-03-06T21:05:21.325Z,83.30
2018-03-06T21:07:52.831Z,86.27
2018-03-06T21:10:23.410Z,98.43
2018-03-06T21:12:54.070Z,105.17
2018-03-06T21:15:26.039Z,81.87
2018-03-06T21:17:56.161Z,87.43
2018-03-06T21:20:26.675Z,86.60
2018-03-06T21:22:58.180Z,96.10
2018-03-06T21:25:28.618Z,79.73
2018-03-06T21:27:58.730Z,85.67
2018-03-06T21:30:29.885Z,78.83
2018-03-06T21:33:00.320Z,77.13
2018-03-06T21:35:30.826Z,86.00
2018-03-06T21:38:00.928Z,80.00
2018-03-06T21:40:31.395Z,81.30
2018-03-06T21:43:02.638Z,92.07
2018-03-06T21:45:33.803Z,73.67
2018-03-06T21:48:05.374Z,92.63
2018-03-06T21:50:35.696Z,83.40
2018-03-06T21:53:05.990Z,81.27
2018-03-06T21:55:36.402Z,89.30
2018-03-06T21:58:06.873Z,75.40
2018-03-06T22:00:36.988Z,86.90
2018-03-06T22:03:07.616Z,94.93
2018-03-06T22:05:38.252Z,84.13
2018-03-06T22:08:08.834Z,82.37
2018-03-06T22:10:39.065Z,82.47
2018-03-06T22:13:09.664Z,97.37
2018-03-06T22:15:40.090Z,86.60
2018-03-06T22:18:10.363Z,77.20
2018-03-06T22:20:41.798Z,86.50
2018-03-06T22:23:12.546Z,94.20
2018-03-06T22:25:43.214Z,89.70
2018-03-06T22:28:13.671Z,84.23
2018-03-06T22:30:43.881Z,80.63
2018-03-06T22:33:14.470Z,90.60
2018-03-06T22:35:45.028Z,80.40
2018-03-06T22:38:15.708Z,103.73
2018-03-06T22:40:46.474Z,80.73
2018-03-06T22:43:16.602Z,91.77
2018-03-06T22:45:46.948Z,100.83
2018-03-06T22:48:17.113Z,110.10
2018-03-06T22:50:48.298Z,105.13
2018-03-06T22:53:18.409Z,95.93
2018-03-06T22:55:48.786Z,83.03
2018-03-06T22:58:19.181Z,97.17
2018-03-06T23:00:49.528Z,109.07
2018-03-06T23:03:20.518Z,88.27
2018-03-06T23:05:51.142Z,87.20
2018-03-06T23:08:21.811Z,87.20
2018-03-06T23:10:52.581Z,89.83
2018-03-06T23:13:23.521Z,95.33
2018-03-06T23:15:53.745Z,90.97
2018-03-06T23:18:25.028Z,81.70
2018-03-06T23:20:55.884Z,87.50
2018-03-06T23:23:26.480Z,85.77
2018-03-06T23:25:56.879Z,82.00
2018-03-06T23:28:27.732Z,80.50
2018-03-06T23:30:59.164Z,94.00
2018-03-06T23:33:30.432Z,79.47
2018-03-06T23:36:00.554Z,83.30
2018-03-06T23:38:30.923Z,95.77
2018-03-06T23:41:01.476Z,94.73
2018-03-06T23:43:32.605Z,88.40
2018-03-06T23:46:03.166Z,89.53
2018-03-06T23:48:33.642Z,87.47
2018-03-06T23:51:04.118Z,95.30
2018-03-06T23:53:34.660Z,81.97
2018-03-06T23:56:05.193Z,81.47
2018-03-06T23:58:35.927Z,81.57
